createdAt,value
2018-07-19T00:00:26.764Z,17.57
2018-07-19T00:03:26.643Z,17.54
2018-07-19T00:06:26.610Z,17.50
2018-07-19T00:09:26.601Z,17.55
2018-07-19T00:12:26.538Z,17.55
2018-07-19T00:15:26.521Z,17.62
2018-07-19T00:18:26.480Z,17.53
2018-07-19T00:21:26.445Z,17.62
2018-07-19T00:24:26.417Z,17.55
2018-07-19T00:27:26.499Z,17.48
2018-07-19T00:30:26.331Z,17.38
2018-07-19T00:33:26.309Z,17.30
2018-07-19T00:36:26.307Z,17.29
2018-07-19T00:39:26.258Z,17.29
2018-07-19T00:42:26.211Z,17.22
2018-07-19T00:45:26.204Z,17.13
2018-07-19T00:48:26.141Z,17.00
2018-07-19T00:51:26.104Z,16.93
2018-07-19T00:54:26.059Z,16.70
2018-07-19T00:57:26.039Z,16.45
2018-07-19T01:00:25.989Z,16.48
2018-07-19T01:03:25.965Z,16.18
2018-07-19T01:06:25.952Z,15.94
2018-07-19T01:09:25.964Z,15.86
2018-07-19T01:12:25.858Z,15.88
2018-07-19T01:15:25.853Z,16.01
2018-07-19T01:18:25.794Z,16.12
2018-07-19T01:21:25.779Z,16.30
2018-07-19T01:24:25.724Z,16.40
2018-07-19T01:27:25.713Z,16.45
2018-07-19T01:30:25.646Z,16.41
2018-07-19T01:33:25.661Z,16.41
2018-07-19T01:36:25.596Z,16.35
2018-07-19T01:39:25.573Z,16.37
2018-07-19T01:42:25.552Z,16.15
2018-07-19T01:45:25.506Z,16.00
2018-07-19T01:48:25.455Z,15.94
2018-07-19T01:51:25.434Z,15.92
2018-07-19T01:54:25.397Z,15.96
2018-07-19T01:57:25.363Z,15.92
2018-07-19T02:00:25.332Z,15.81
2018-07-19T02:03:25.302Z,15.64
2018-07-19T02:06:25.249Z,15.57
2018-07-19T02:09:25.225Z,15.57
2018-07-19T02:12:25.178Z,15.45
2018-07-19T02:15:25.161Z,15.21
2018-07-19T02:18:25.122Z,15.03
2018-07-19T02:21:25.088Z,15.19
2018-07-19T02:24:25.068Z,15.36
2018-07-19T02:27:25.049Z,15.42
2018-07-19T02:30:25.003Z,15.28
2018-07-19T02:33:24.968Z,15.20
2018-07-19T02:36:24.957Z,15.02
2018-07-19T02:39:24.901Z,15.17
2018-07-19T02:42:24.857Z,15.13
2018-07-19T02:45:24.840Z,14.98
2018-07-19T02:48:24.794Z,14.94
2018-07-19T02:51:24.794Z,14.84
2018-07-19T02:54:24.720Z,14.99
2018-07-19T02:57:24.693Z,14.99
2018-07-19T03:00:24.642Z,15.23
2018-07-19T03:03:24.669Z,15.19
2018-07-19T03:06:24.568Z,14.72
2018-07-19T03:09:24.594Z,14.38
2018-07-19T03:12:24.502Z,14.28
2018-07-19T03:15:24.521Z,14.06
2018-07-19T03:18:24.438Z,14.04
2018-07-19T03:21:24.427Z,13.96
2018-07-19T03:24:24.373Z,13.84
2018-07-19T03:27:24.388Z,13.79
2018-07-19T03:30:24.334Z,13.70
2018-07-19T03:33:24.293Z,13.43
2018-07-19T03:36:24.244Z,13.67
2018-07-19T03:39:24.231Z,13.89
2018-07-19T03:42:24.173Z,13.98
2018-07-19T03:45:24.152Z,13.89
2018-07-19T03:48:24.103Z,13.63
2018-07-19T03:51:24.099Z,13.63
2018-07-19T03:54:24.055Z,13.52
2018-07-19T03:57:24.027Z,13.62
2018-07-19T04:00:23.995Z,13.77
2018-07-19T04:03:23.944Z,14.04
2018-07-19T04:06:23.925Z,14.46
2018-07-19T04:09:23.898Z,14.67
2018-07-19T04:12:23.846Z,14.86
2018-07-19T04:15:23.821Z,15.09
2018-07-19T04:18:23.765Z,15.38
2018-07-19T04:21:23.765Z,15.66
2018-07-19T04:24:23.774Z,15.94
2018-07-19T04:27:23.734Z,16.48
2018-07-19T04:30:23.633Z,16.81
2018-07-19T04:33:23.620Z,17.53
2018-07-19T04:36:23.561Z,17.81
2018-07-19T04:39:23.576Z,18.19
2018-07-19T04:42:23.513Z,18.73
2018-07-19T04:45:23.477Z,18.98
2018-07-19T04:48:23.511Z,19.36
2018-07-19T04:51:23.467Z,19.66
2018-07-19T04:54:23.364Z,20.10
2018-07-19T04:57:23.357Z,20.58
2018-07-19T05:00:23.303Z,20.84
2018-07-19T05:03:23.275Z,21.29
2018-07-19T05:06:23.229Z,21.59
2018-07-19T05:09:23.211Z,21.99
2018-07-19T05:12:23.162Z,22.22
2018-07-19T05:15:23.183Z,22.47
2018-07-19T05:18:23.126Z,22.44
2018-07-19T05:21:23.093Z,22.56
2018-07-19T05:24:23.036Z,23.14
2018-07-19T05:27:23.025Z,23.57
2018-07-19T05:30:22.984Z,24.01
2018-07-19T05:33:22.949Z,23.50
2018-07-19T05:36:22.917Z,23.40
2018-07-19T05:39:22.903Z,23.65
2018-07-19T05:42:22.887Z,24.71
2018-07-19T05:45:22.834Z,25.50
2018-07-19T05:48:22.789Z,25.24
2018-07-19T05:51:22.768Z,25.38
2018-07-19T05:54:22.741Z,25.87
2018-07-19T05:57:22.767Z,25.39
2018-07-19T06:00:22.648Z,25.28
2018-07-19T06:03:22.619Z,26.02
2018-07-19T06:06:22.597Z,26.77
2018-07-19T06:09:22.606Z,27.31
2018-07-19T06:12:22.522Z,27.62
2018-07-19T06:15:22.534Z,26.47
2018-07-19T06:18:22.468Z,26.40
2018-07-19T06:21:22.440Z,27.32
2018-07-19T06:24:22.375Z,27.54
2018-07-19T06:27:22.378Z,26.83
2018-07-19T06:30:22.333Z,27.70
2018-07-19T06:33:22.387Z,28.22
2018-07-19T06:36:22.387Z,28.16
2018-07-19T06:39:22.326Z,28.43
2018-07-19T06:42:22.219Z,28.75
2018-07-19T06:45:22.202Z,28.16
2018-07-19T06:48:22.121Z,28.25
2018-07-19T06:51:22.122Z,28.31
2018-07-19T06:54:22.066Z,28.68
2018-07-19T06:57:22.077Z,28.82
2018-07-19T07:00:22.000Z,28.77
2018-07-19T07:03:21.987Z,28.78
2018-07-19T07:06:21.988Z,27.82
2018-07-19T07:09:21.944Z,27.82
2018-07-19T07:12:21.907Z,29.13
2018-07-19T07:15:21.858Z,27.76
2018-07-19T07:18:21.812Z,28.60
2018-07-19T07:21:21.912Z,29.47
2018-07-19T07:24:21.751Z,27.29
2018-07-19T07:27:21.837Z,27.32
2018-07-19T07:30:21.696Z,26.22
2018-07-19T07:33:21.700Z,28.26
2018-07-19T07:36:21.642Z,28.48
2018-07-19T07:39:21.595Z,27.43
2018-07-19T07:42:21.566Z,28.19
2018-07-19T07:45:21.555Z,27.79
2018-07-19T07:48:21.501Z,27.86
2018-07-19T07:51:21.477Z,28.59
2018-07-19T07:54:21.445Z,28.59
2018-07-19T07:57:21.419Z,28.17
2018-07-19T08:00:21.403Z,29.37
2018-07-19T08:03:21.356Z,30.64
2018-07-19T08:06:21.322Z,31.40
2018-07-19T08:09:21.302Z,31.20
2018-07-19T08:12:21.261Z,31.98
2018-07-19T08:15:21.236Z,32.20
2018-07-19T08:18:21.216Z,32.17
2018-07-19T08:21:21.206Z,30.78
2018-07-19T08:24:21.144Z,31.09
2018-07-19T08:27:21.248Z,31.48
2018-07-19T08:30:21.099Z,32.02
2018-07-19T08:33:21.085Z,33.95
2018-07-19T08:36:21.037Z,33.51
2018-07-19T08:39:21.018Z,32.24
2018-07-19T08:42:20.976Z,31.96
2018-07-19T08:45:20.958Z,32.27
2018-07-19T08:48:20.920Z,31.28
2018-07-19T08:51:20.913Z,31.38
2018-07-19T08:54:20.866Z,31.91
2018-07-19T08:57:20.855Z,32.48
2018-07-19T09:00:20.836Z,32.71
2018-07-19T09:03:20.796Z,33.06
2018-07-19T09:06:20.757Z,34.61
2018-07-19T09:09:20.764Z,33.52
2018-07-19T09:12:20.712Z,33.98
2018-07-19T09:15:20.689Z,34.41
2018-07-19T09:18:20.642Z,35.32
2018-07-19T09:21:20.647Z,35.39
2018-07-19T09:24:20.605Z,36.08
2018-07-19T09:27:20.590Z,34.48
2018-07-19T09:30:20.536Z,33.76
2018-07-19T09:33:20.544Z,33.64
2018-07-19T09:36:20.481Z,34.42
2018-07-19T09:39:20.481Z,34.61
2018-07-19T09:42:20.448Z,34.56
2018-07-19T09:45:20.412Z,35.28
2018-07-19T09:48:20.459Z,35.64
2018-07-19T09:51:20.384Z,35.25
2018-07-19T09:54:20.340Z,35.93
2018-07-19T09:57:20.331Z,36.23
2018-07-19T10:00:20.298Z,34.94
2018-07-19T10:03:20.287Z,34.17
2018-07-19T10:06:20.246Z,35.20
2018-07-19T10:09:20.296Z,35.20
2018-07-19T10:12:20.193Z,35.58
2018-07-19T10:15:20.760Z,35.66
2018-07-19T10:18:20.121Z,36.19
2018-07-19T10:21:20.179Z,36.01
2018-07-19T10:24:20.113Z,34.50
2018-07-19T10:27:20.222Z,34.50
2018-07-19T10:30:20.017Z,35.18
2018-07-19T10:33:20.115Z,35.99
2018-07-19T10:36:19.973Z,36.06
2018-07-19T10:39:19.976Z,33.63
2018-07-19T10:42:19.908Z,34.29
2018-07-19T10:45:19.917Z,35.63
2018-07-19T10:48:19.862Z,34.83
2018-07-19T10:51:19.867Z,36.11
2018-07-19T10:54:19.829Z,32.64
2018-07-19T10:57:19.847Z,31.93
2018-07-19T11:00:20.704Z,31.73
2018-07-19T11:03:19.799Z,31.43
2018-07-19T11:06:19.711Z,32.67
2018-07-19T11:09:19.755Z,32.84
2018-07-19T11:12:19.652Z,34.08
2018-07-19T11:15:19.670Z,34.51
2018-07-19T11:18:19.621Z,30.72
2018-07-19T11:21:19.582Z,31.20
2018-07-19T11:24:19.541Z,33.04
2018-07-19T11:27:19.561Z,34.17
2018-07-19T11:30:19.492Z,32.92
2018-07-19T11:33:19.503Z,32.29
2018-07-19T11:36:19.501Z,31.09
2018-07-19T11:39:19.430Z,33.71
2018-07-19T11:42:19.388Z,36.31
2018-07-19T11:45:19.365Z,37.29
2018-07-19T11:48:19.356Z,36.08
2018-07-19T11:51:19.320Z,32.84
2018-07-19T11:54:19.284Z,33.15
2018-07-19T11:57:20.198Z,32.52
2018-07-19T12:00:19.251Z,31.48
2018-07-19T12:03:19.216Z,29.75
2018-07-19T12:06:19.169Z,29.08
2018-07-19T12:09:19.193Z,29.82
2018-07-19T12:12:19.120Z,29.86
2018-07-19T12:15:19.119Z,29.87
2018-07-19T12:18:19.064Z,30.14
2018-07-19T12:21:19.037Z,30.36
2018-07-19T12:24:18.986Z,30.83
2018-07-19T12:27:18.992Z,30.71
2018-07-19T12:30:18.925Z,30.67
2018-07-19T12:33:18.904Z,30.54
2018-07-19T12:36:18.865Z,30.65
2018-07-19T12:39:18.837Z,30.46
2018-07-19T12:42:18.812Z,31.04
2018-07-19T12:45:18.792Z,31.96
2018-07-19T12:48:18.738Z,33.23
2018-07-19T12:51:18.728Z,34.86
2018-07-19T12:54:18.708Z,34.31
2018-07-19T12:57:18.677Z,34.91
2018-07-19T13:00:18.682Z,34.22
2018-07-19T13:03:18.616Z,34.13
2018-07-19T13:06:18.614Z,34.80
2018-07-19T13:09:18.573Z,35.81
2018-07-19T13:12:18.546Z,36.39
2018-07-19T13:15:18.569Z,36.76
2018-07-19T13:18:18.502Z,36.75
2018-07-19T13:21:18.468Z,36.43
2018-07-19T13:24:18.456Z,36.80
2018-07-19T13:27:19.196Z,37.56
2018-07-19T13:30:18.383Z,37.33
2018-07-19T13:33:18.386Z,36.65
2018-07-19T13:36:18.336Z,35.48
2018-07-19T13:39:18.315Z,35.33
2018-07-19T13:42:18.279Z,34.17
2018-07-19T13:45:18.268Z,34.89
2018-07-19T13:48:18.267Z,34.46
2018-07-19T13:51:18.212Z,33.36
2018-07-19T13:54:18.198Z,31.60
2018-07-19T13:57:18.213Z,32.80
2018-07-19T14:00:18.140Z,31.38
2018-07-19T14:03:18.224Z,30.56
2018-07-19T14:06:18.150Z,31.80
2018-07-19T14:09:18.086Z,33.90
2018-07-19T14:12:18.040Z,35.18
2018-07-19T14:15:18.037Z,35.86
2018-07-19T14:18:17.969Z,35.85
2018-07-19T14:21:17.948Z,34.09
2018-07-19T14:24:17.910Z,33.39
2018-07-19T14:27:17.958Z,32.48
2018-07-19T14:30:17.865Z,32.42
2018-07-19T14:33:17.922Z,32.98
2018-07-19T14:36:17.810Z,33.11
2018-07-19T14:39:17.783Z,32.64
2018-07-19T14:42:17.758Z,34.07
2018-07-19T14:45:17.725Z,34.51
2018-07-19T14:48:17.712Z,33.58
2018-07-19T14:51:17.676Z,31.82
2018-07-19T14:54:17.649Z,31.36
2018-07-19T14:57:17.864Z,30.67
2018-07-19T15:00:17.586Z,30.02
2018-07-19T15:03:17.554Z,32.33
2018-07-19T15:06:17.513Z,33.55
2018-07-19T15:09:17.491Z,34.64
2018-07-19T15:12:17.449Z,33.71
2018-07-19T15:15:17.453Z,32.39
2018-07-19T15:18:17.386Z,31.68
2018-07-19T15:21:17.388Z,31.53
2018-07-19T15:24:17.350Z,32.93
2018-07-19T15:27:17.328Z,34.54
2018-07-19T15:30:17.284Z,35.93
2018-07-19T15:33:17.270Z,34.84
2018-07-19T15:36:17.228Z,33.97
2018-07-19T15:39:17.351Z,33.65
2018-07-19T15:42:17.732Z,32.40
2018-07-19T15:45:17.181Z,32.39
2018-07-19T15:48:17.128Z,32.98
2018-07-19T15:51:17.113Z,33.10
2018-07-19T15:54:17.071Z,34.02
2018-07-19T15:57:17.068Z,33.71
2018-07-19T16:00:17.009Z,33.11
2018-07-19T16:03:16.989Z,32.42
2018-07-19T16:06:16.948Z,32.98
2018-07-19T16:09:16.932Z,34.20
2018-07-19T16:12:16.899Z,33.97
2018-07-19T16:15:16.882Z,33.49
2018-07-19T16:18:16.851Z,33.13
2018-07-19T16:21:16.817Z,32.49
2018-07-19T16:24:16.810Z,32.79
2018-07-19T16:27:16.768Z,32.27
2018-07-19T16:30:16.741Z,32.44
2018-07-19T16:33:16.696Z,33.37
2018-07-19T16:36:16.719Z,34.31
2018-07-19T16:39:16.645Z,32.98
2018-07-19T16:42:16.623Z,34.02
2018-07-19T16:45:16.595Z,33.89
2018-07-19T16:48:16.540Z,33.67
2018-07-19T16:51:16.602Z,34.04
2018-07-19T16:54:16.489Z,33.53
2018-07-19T16:57:16.474Z,33.73
2018-07-19T17:00:16.456Z,34.20
2018-07-19T17:03:16.422Z,33.42
2018-07-19T17:06:16.366Z,33.06
2018-07-19T17:09:16.377Z,34.00
2018-07-19T17:12:16.315Z,33.06
2018-07-19T17:15:16.309Z,32.27
2018-07-19T17:18:16.247Z,32.06
2018-07-19T17:21:16.275Z,32.77
2018-07-19T17:24:16.193Z,32.35
2018-07-19T17:27:16.171Z,32.36
2018-07-19T17:30:16.126Z,32.48
2018-07-19T17:33:16.110Z,32.32
2018-07-19T17:36:16.056Z,32.33
2018-07-19T17:39:16.053Z,32.85
2018-07-19T17:42:16.006Z,32.84
2018-07-19T17:45:15.981Z,32.17
2018-07-19T17:48:15.934Z,31.05
2018-07-19T17:51:15.929Z,30.69
2018-07-19T17:54:15.871Z,31.06
2018-07-19T17:57:15.887Z,30.40
2018-07-19T18:00:15.826Z,30.18
2018-07-19T18:03:15.952Z,30.02
2018-07-19T18:06:15.798Z,29.03
2018-07-19T18:09:15.742Z,28.28
2018-07-19T18:12:15.682Z,27.96
2018-07-19T18:15:15.675Z,28.23
2018-07-19T18:18:15.613Z,27.99
2018-07-19T18:21:15.595Z,27.62
2018-07-19T18:24:15.570Z,27.26
2018-07-19T18:27:15.557Z,27.05
2018-07-19T18:30:15.579Z,26.80
2018-07-19T18:33:15.476Z,26.61
2018-07-19T18:36:15.424Z,26.58
2018-07-19T18:39:15.404Z,26.39
2018-07-19T18:42:15.359Z,26.11
2018-07-19T18:45:15.410Z,25.89
2018-07-19T18:48:15.293Z,25.71
2018-07-19T18:51:15.275Z,25.61
2018-07-19T18:54:15.243Z,25.47
2018-07-19T18:57:15.221Z,25.28
2018-07-19T19:00:15.154Z,25.12
2018-07-19T19:03:15.147Z,24.88
2018-07-19T19:06:19.114Z,24.68
2018-07-19T19:09:15.077Z,24.49
2018-07-19T19:12:15.034Z,24.42
2018-07-19T19:15:14.999Z,24.35
2018-07-19T19:18:14.951Z,24.27
2018-07-19T19:21:15.144Z,24.17
2018-07-19T19:24:15.587Z,24.17
2018-07-19T19:27:15.540Z,24.01
2018-07-19T19:30:14.822Z,24.01
2018-07-19T19:33:14.796Z,23.97
2018-07-19T19:36:15.701Z,23.80
2018-07-19T19:39:14.864Z,23.65
2018-07-19T19:42:14.726Z,23.26
2018-07-19T19:45:14.676Z,23.09
2018-07-19T19:48:14.616Z,22.93
2018-07-19T19:51:14.595Z,22.84
2018-07-19T19:54:14.597Z,22.83
2018-07-19T19:57:14.532Z,22.82
2018-07-19T20:00:14.488Z,22.72
2018-07-19T20:03:14.493Z,22.67
2018-07-19T20:06:14.419Z,22.60
2018-07-19T20:09:14.412Z,22.62
2018-07-19T20:12:14.352Z,22.72
2018-07-19T20:15:14.328Z,22.49
2018-07-19T20:18:14.289Z,22.43
2018-07-19T20:21:14.252Z,22.35
2018-07-19T20:24:14.218Z,22.29
2018-07-19T20:27:14.289Z,22.32
2018-07-19T20:30:14.146Z,22.25
2018-07-19T20:33:14.133Z,22.12
2018-07-19T20:36:14.077Z,22.02
2018-07-19T20:39:14.084Z,21.83
2018-07-19T20:42:14.019Z,21.81
2018-07-19T20:45:13.987Z,21.74
2018-07-19T20:48:13.944Z,21.59
2018-07-19T20:51:13.929Z,21.54
2018-07-19T20:54:13.909Z,21.38
2018-07-19T20:57:13.856Z,21.35
2018-07-19T21:00:13.831Z,21.11
2018-07-19T21:03:13.774Z,21.17
2018-07-19T21:06:13.923Z,21.19
2018-07-19T21:09:13.712Z,21.11
2018-07-19T21:12:13.664Z,21.11
2018-07-19T21:15:13.665Z,21.08
2018-07-19T21:18:13.652Z,20.99
2018-07-19T21:21:13.612Z,21.09
2018-07-19T21:24:13.532Z,20.86
2018-07-19T21:27:13.525Z,20.87
2018-07-19T21:30:13.478Z,20.80
2018-07-19T21:33:13.444Z,20.74
2018-07-19T21:36:13.428Z,20.74
2018-07-19T21:39:13.382Z,20.59
2018-07-19T21:42:13.337Z,20.47
2018-07-19T21:45:13.307Z,20.43
2018-07-19T21:48:13.293Z,20.49
2018-07-19T21:51:13.243Z,20.41
2018-07-19T21:54:13.204Z,20.31
2018-07-19T21:57:13.176Z,20.13
2018-07-19T22:00:13.127Z,20.15
2018-07-19T22:03:13.125Z,20.15
2018-07-19T22:06:13.069Z,20.12
2018-07-19T22:09:13.052Z,20.00
2018-07-19T22:12:12.996Z,20.03
2018-07-19T22:15:12.980Z,19.97
2018-07-19T22:18:12.932Z,19.94
2018-07-19T22:21:12.909Z,19.87
2018-07-19T22:24:12.876Z,19.83
2018-07-19T22:27:12.854Z,19.75
2018-07-19T22:30:12.857Z,19.66
2018-07-19T22:33:12.764Z,19.70
2018-07-19T22:36:12.737Z,19.69
2018-07-19T22:39:12.707Z,19.54
2018-07-19T22:42:12.670Z,19.50
2018-07-19T22:45:12.657Z,19.48
2018-07-19T22:48:12.589Z,19.47
2018-07-19T22:51:12.570Z,19.28
2018-07-19T22:54:12.526Z,19.20
2018-07-19T22:57:12.594Z,19.23
2018-07-19T23:00:12.456Z,19.14
2018-07-19T23:03:12.434Z,19.20
2018-07-19T23:06:12.408Z,19.02
2018-07-19T23:09:12.381Z,19.01
2018-07-19T23:12:12.347Z,19.01
2018-07-19T23:15:12.307Z,18.86
2018-07-19T23:18:12.275Z,18.55
2018-07-19T23:21:12.238Z,18.22
2018-07-19T23:24:12.227Z,18.31
2018-07-19T23:27:12.181Z,18.07
2018-07-19T23:30:12.116Z,18.00
2018-07-19T23:33:12.137Z,17.97
2018-07-19T23:36:12.064Z,18.25
2018-07-19T23:39:12.210Z,18.54
2018-07-19T23:42:11.980Z,18.61
2018-07-19T23:45:11.968Z,18.52
2018-07-19T23:48:11.929Z,18.47
2018-07-19T23:51:11.900Z,18.42
2018-07-19T23:54:11.853Z,18.21
2018-07-19T23:57:11.848Z,17.99
